sensor_id;sensor_type;location;lat;lon;timestamp;pressure;altitude;pressure_sealevel;temperature
60731;BMP280;46580;52.114;11.674;2024-02-16T00:02:20;-19506.13;;;10.30
60731;BMP280;46580;52.114;11.674;2024-02-16T00:04:47;-19506.13;;;10.30
60731;BMP280;46580;52.114;11.674;2024-02-16T00:07:13;-19506.69;;;10.32
60731;BMP280;46580;52.114;11.674;2024-02-16T00:09:38;-19505.53;;;10.28
60731;BMP280;46580;52.114;11.674;2024-02-16T00:12:06;-19505.25;;;10.27
60731;BMP280;46580;52.114;11.674;2024-02-16T00:14:32;-19506.69;;;10.32
60731;BMP280;46580;52.114;11.674;2024-02-16T00:16:57;-19505.97;;;10.29
60731;BMP280;46580;52.114;11.674;2024-02-16T00:19:22;-19506.97;;;10.33
60731;BMP280;46580;52.114;11.674;2024-02-16T00:21:48;-19506.25;;;10.30
60731;BMP280;46580;52.114;11.674;2024-02-16T00:24:13;-19505.69;;;10.28
60731;BMP280;46580;52.114;11.674;2024-02-16T00:26:39;-19508.13;;;10.37
60731;BMP280;46580;52.114;11.674;2024-02-16T00:29:05;-19506.81;;;10.32
60731;BMP280;46580;52.114;11.674;2024-02-16T00:31:30;-19506.13;;;10.30
60731;BMP280;46580;52.114;11.674;2024-02-16T00:33:56;-19507.25;;;10.34
60731;BMP280;46580;52.114;11.674;2024-02-16T00:36:21;-19505.09;;;10.26
60731;BMP280;46580;52.114;11.674;2024-02-16T00:38:47;-19506.13;;;10.30
60731;BMP280;46580;52.114;11.674;2024-02-16T00:41:22;-19505.25;;;10.27
60731;BMP280;46580;52.114;11.674;2024-02-16T00:43:48;-19505.97;;;10.29
60731;BMP280;46580;52.114;11.674;2024-02-16T00:46:13;-19504.81;;;10.25
60731;BMP280;46580;52.114;11.674;2024-02-16T00:48:39;-19502.38;;;10.17
60731;BMP280;46580;52.114;11.674;2024-02-16T00:51:04;-19501.53;;;10.14
60731;BMP280;46580;52.114;11.674;2024-02-16T00:53:30;-19503.25;;;10.20
60731;BMP280;46580;52.114;11.674;2024-02-16T00:55:55;-19504.09;;;10.23
60731;BMP280;46580;52.114;11.674;2024-02-16T00:58:20;-19505.09;;;10.26
60731;BMP280;46580;52.114;11.674;2024-02-16T01:00:48;-19505.41;;;10.27
60731;BMP280;46580;52.114;11.674;2024-02-16T01:03:14;-19505.09;;;10.26
60731;BMP280;46580;52.114;11.674;2024-02-16T01:05:39;-19503.38;;;10.21
60731;BMP280;46580;52.114;11.674;2024-02-16T01:08:08;-19503.25;;;10.20
60731;BMP280;46580;52.114;11.674;2024-02-16T01:10:33;-19502.66;;;10.18
60731;BMP280;46580;52.114;11.674;2024-02-16T01:12:58;-19502.97;;;10.19
60731;BMP280;46580;52.114;11.674;2024-02-16T01:15:24;-19502.38;;;10.17
60731;BMP280;46580;52.114;11.674;2024-02-16T01:17:49;-19502.53;;;10.18
60731;BMP280;46580;52.114;11.674;2024-02-16T01:20:15;-19502.81;;;10.19
60731;BMP280;46580;52.114;11.674;2024-02-16T01:22:43;-19498.81;;;10.05
60731;BMP280;46580;52.114;11.674;2024-02-16T01:25:09;-19499.97;;;10.09
60731;BMP280;46580;52.114;11.674;2024-02-16T01:27:35;-19499.81;;;10.08
60731;BMP280;46580;52.114;11.674;2024-02-16T01:30:01;-19500.38;;;10.10
60731;BMP280;46580;52.114;11.674;2024-02-16T01:32:28;-19499.97;;;10.09
60731;BMP280;46580;52.114;11.674;2024-02-16T01:34:53;-19498.94;;;10.05
60731;BMP280;46580;52.114;11.674;2024-02-16T01:37:19;-19498.94;;;10.05
60731;BMP280;46580;52.114;11.674;2024-02-16T01:39:44;-19495.38;;;9.93
60731;BMP280;46580;52.114;11.674;2024-02-16T01:42:11;-19496.38;;;9.97
60731;BMP280;46580;52.114;11.674;2024-02-16T01:44:36;-19495.66;;;9.94
60731;BMP280;46580;52.114;11.674;2024-02-16T01:47:03;-19492.66;;;9.84
60731;BMP280;46580;52.114;11.674;2024-02-16T01:49:29;-19490.50;;;9.77
60731;BMP280;46580;52.114;11.674;2024-02-16T01:51:55;-19491.50;;;9.80
60731;BMP280;46580;52.114;11.674;2024-02-16T01:54:20;-19490.22;;;9.76
60731;BMP280;46580;52.114;11.674;2024-02-16T01:56:46;-19488.94;;;9.71
60731;BMP280;46580;52.114;11.674;2024-02-16T01:59:11;-19488.06;;;9.68
60731;BMP280;46580;52.114;11.674;2024-02-16T02:01:37;-19487.34;;;9.66
60731;BMP280;46580;52.114;11.674;2024-02-16T02:04:03;-19488.06;;;9.68
60731;BMP280;46580;52.114;11.674;2024-02-16T02:06:29;-19488.34;;;9.69
60731;BMP280;46580;52.114;11.674;2024-02-16T02:08:54;-19487.50;;;9.66
60731;BMP280;46580;52.114;11.674;2024-02-16T02:11:19;-19488.94;;;9.71
60731;BMP280;46580;52.114;11.674;2024-02-16T02:13:45;-19488.22;;;9.69
60731;BMP280;46580;52.114;11.674;2024-02-16T02:16:11;-19486.94;;;9.65
60731;BMP280;46580;52.114;11.674;2024-02-16T02:18:37;-19487.66;;;9.67
60731;BMP280;46580;52.114;11.674;2024-02-16T02:21:02;-19486.50;;;9.63
60731;BMP280;46580;52.114;11.674;2024-02-16T02:23:27;-19486.78;;;9.64
60731;BMP280;46580;52.114;11.674;2024-02-16T02:25:53;-19487.66;;;9.67
60731;BMP280;46580;52.114;11.674;2024-02-16T02:28:19;-19486.50;;;9.63
60731;BMP280;46580;52.114;11.674;2024-02-16T02:30:45;-19488.22;;;9.69
60731;BMP280;46580;52.114;11.674;2024-02-16T02:33:11;-19489.22;;;9.72
60731;BMP280;46580;52.114;11.674;2024-02-16T02:35:38;-19487.94;;;9.68
60731;BMP280;46580;52.114;11.674;2024-02-16T02:38:04;-19488.94;;;9.71
60731;BMP280;46580;52.114;11.674;2024-02-16T02:40:30;-19491.50;;;9.80
60731;BMP280;46580;52.114;11.674;2024-02-16T02:42:57;-19490.50;;;9.77
60731;BMP280;46580;52.114;11.674;2024-02-16T02:45:23;-19489.78;;;9.74
60731;BMP280;46580;52.114;11.674;2024-02-16T02:47:49;-19490.50;;;9.77
60731;BMP280;46580;52.114;11.674;2024-02-16T02:50:15;-19491.38;;;9.80
60731;BMP280;46580;52.114;11.674;2024-02-16T02:52:40;-19492.09;;;9.82
60731;BMP280;46580;52.114;11.674;2024-02-16T02:55:06;-19492.09;;;9.82
60731;BMP280;46580;52.114;11.674;2024-02-16T02:57:32;-19494.38;;;9.90
60731;BMP280;46580;52.114;11.674;2024-02-16T03:00:07;-19493.81;;;9.88
60731;BMP280;46580;52.114;11.674;2024-02-16T03:02:40;-19494.94;;;9.92
60731;BMP280;46580;52.114;11.674;2024-02-16T03:05:06;-19494.66;;;9.91
60731;BMP280;46580;52.114;11.674;2024-02-16T03:07:33;-19493.38;;;9.86
60731;BMP280;46580;52.114;11.674;2024-02-16T03:09:58;-19493.81;;;9.88
60731;BMP280;46580;52.114;11.674;2024-02-16T03:12:24;-19493.66;;;9.87
60731;BMP280;46580;52.114;11.674;2024-02-16T03:14:49;-19494.22;;;9.89
60731;BMP280;46580;52.114;11.674;2024-02-16T03:17:15;-19494.09;;;9.89
60731;BMP280;46580;52.114;11.674;2024-02-16T03:19:40;-19493.94;;;9.88
60731;BMP280;46580;52.114;11.674;2024-02-16T03:22:05;-19494.94;;;9.92
60731;BMP280;46580;52.114;11.674;2024-02-16T03:24:31;-19495.22;;;9.93
60731;BMP280;46580;52.114;11.674;2024-02-16T03:26:58;-19495.22;;;9.93
60731;BMP280;46580;52.114;11.674;2024-02-16T03:29:24;-19495.53;;;9.94
60731;BMP280;46580;52.114;11.674;2024-02-16T03:31:52;-19496.25;;;9.96
60731;BMP280;46580;52.114;11.674;2024-02-16T03:34:18;-19496.81;;;9.98
60731;BMP280;46580;52.114;11.674;2024-02-16T03:36:43;-19497.38;;;10.00
60731;BMP280;46580;52.114;11.674;2024-02-16T03:39:09;-19496.66;;;9.98
60731;BMP280;46580;52.114;11.674;2024-02-16T03:41:36;-19497.66;;;10.01
60731;BMP280;46580;52.114;11.674;2024-02-16T03:44:04;-19497.66;;;10.01
60731;BMP280;46580;52.114;11.674;2024-02-16T03:46:30;-19497.38;;;10.00
60731;BMP280;46580;52.114;11.674;2024-02-16T03:48:56;-19497.53;;;10.01
60731;BMP280;46580;52.114;11.674;2024-02-16T03:51:22;-19497.81;;;10.02
60731;BMP280;46580;52.114;11.674;2024-02-16T03:53:47;-19497.25;;;10.00
60731;BMP280;46580;52.114;11.674;2024-02-16T03:56:18;-19495.66;;;9.94
60731;BMP280;46580;52.114;11.674;2024-02-16T03:58:44;-19493.50;;;9.87
60731;BMP280;46580;52.114;11.674;2024-02-16T04:01:09;-19490.94;;;9.78
60731;BMP280;46580;52.114;11.674;2024-02-16T04:03:34;-19492.09;;;9.82
60731;BMP280;46580;52.114;11.674;2024-02-16T04:06:00;-19491.66;;;9.81
60731;BMP280;46580;52.114;11.674;2024-02-16T04:08:26;-19492.09;;;9.82
60731;BMP280;46580;52.114;11.674;2024-02-16T04:10:54;-19491.81;;;9.81
60731;BMP280;46580;52.114;11.674;2024-02-16T04:13:19;-19492.09;;;9.82
60731;BMP280;46580;52.114;11.674;2024-02-16T04:15:45;-19491.66;;;9.81
60731;BMP280;46580;52.114;11.674;2024-02-16T04:18:10;-19491.66;;;9.81
60731;BMP280;46580;52.114;11.674;2024-02-16T04:20:36;-19490.78;;;9.78
60731;BMP280;46580;52.114;11.674;2024-02-16T04:23:01;-19491.81;;;9.81
60731;BMP280;46580;52.114;11.674;2024-02-16T04:25:27;-19491.50;;;9.80
60731;BMP280;46580;52.114;11.674;2024-02-16T04:27:53;-19492.38;;;9.83
60731;BMP280;46580;52.114;11.674;2024-02-16T04:30:18;-19491.38;;;9.80
60731;BMP280;46580;52.114;11.674;2024-02-16T04:32:43;-19492.38;;;9.83
60731;BMP280;46580;52.114;11.674;2024-02-16T04:35:09;-19492.22;;;9.83
60731;BMP280;46580;52.114;11.674;2024-02-16T04:37:37;-19492.22;;;9.83
60731;BMP280;46580;52.114;11.674;2024-02-16T04:40:06;-19492.09;;;9.82
60731;BMP280;46580;52.114;11.674;2024-02-16T04:42:31;-19490.94;;;9.78
60731;BMP280;46580;52.114;11.674;2024-02-16T04:44:57;-19490.78;;;9.78
60731;BMP280;46580;52.114;11.674;2024-02-16T04:47:25;-19491.22;;;9.79
60731;BMP280;46580;52.114;11.674;2024-02-16T04:49:50;-19490.94;;;9.78
60731;BMP280;46580;52.114;11.674;2024-02-16T04:52:15;-19491.94;;;9.82
60731;BMP280;46580;52.114;11.674;2024-02-16T04:54:41;-19491.66;;;9.81
60731;BMP280;46580;52.114;11.674;2024-02-16T04:57:06;-19491.50;;;9.80
60731;BMP280;46580;52.114;11.674;2024-02-16T04:59:32;-19491.09;;;9.79
60731;BMP280;46580;52.114;11.674;2024-02-16T05:01:58;-19491.81;;;9.81
60731;BMP280;46580;52.114;11.674;2024-02-16T05:04:23;-19492.50;;;9.84
60731;BMP280;46580;52.114;11.674;2024-02-16T05:06:49;-19492.81;;;9.84
60731;BMP280;46580;52.114;11.674;2024-02-16T05:09:16;-19493.50;;;9.87
60731;BMP280;46580;52.114;11.674;2024-02-16T05:11:45;-19495.81;;;9.95
60731;BMP280;46580;52.114;11.674;2024-02-16T05:14:11;-19496.38;;;9.97
60731;BMP280;46580;52.114;11.674;2024-02-16T05:16:45;-19495.81;;;9.95
60731;BMP280;46580;52.114;11.674;2024-02-16T05:19:11;-19496.94;;;9.99
60731;BMP280;46580;52.114;11.674;2024-02-16T05:21:36;-19496.94;;;9.99
60731;BMP280;46580;52.114;11.674;2024-02-16T05:24:02;-19496.66;;;9.98
60731;BMP280;46580;52.114;11.674;2024-02-16T05:26:28;-19496.66;;;9.98
60731;BMP280;46580;52.114;11.674;2024-02-16T05:28:53;-19495.66;;;9.94
60731;BMP280;46580;52.114;11.674;2024-02-16T05:31:19;-19495.66;;;9.94
60731;BMP280;46580;52.114;11.674;2024-02-16T05:33:47;-19494.81;;;9.91
60731;BMP280;46580;52.114;11.674;2024-02-16T05:36:16;-19492.66;;;9.84
60731;BMP280;46580;52.114;11.674;2024-02-16T05:38:43;-19494.66;;;9.91
60731;BMP280;46580;52.114;11.674;2024-02-16T05:41:09;-19492.09;;;9.82
60731;BMP280;46580;52.114;11.674;2024-02-16T05:43:36;-19490.66;;;9.77
60731;BMP280;46580;52.114;11.674;2024-02-16T05:46:03;-19490.06;;;9.75
60731;BMP280;46580;52.114;11.674;2024-02-16T05:48:32;-19489.78;;;9.74
60731;BMP280;46580;52.114;11.674;2024-02-16T05:51:03;-19491.22;;;9.79
60731;BMP280;46580;52.114;11.674;2024-02-16T05:53:30;-19490.66;;;9.77
60731;BMP280;46580;52.114;11.674;2024-02-16T05:55:56;-19490.78;;;9.78
60731;BMP280;46580;52.114;11.674;2024-02-16T05:58:21;-19489.34;;;9.73
60731;BMP280;46580;52.114;11.674;2024-02-16T06:00:48;-19487.34;;;9.66
60731;BMP280;46580;52.114;11.674;2024-02-16T06:03:14;-19487.50;;;9.66
60731;BMP280;46580;52.114;11.674;2024-02-16T06:05:40;-19489.66;;;9.74
60731;BMP280;46580;52.114;11.674;2024-02-16T06:08:12;-19489.78;;;9.74
60731;BMP280;46580;52.114;11.674;2024-02-16T06:10:37;-19488.34;;;9.69
60731;BMP280;46580;52.114;11.674;2024-02-16T06:13:03;-19488.22;;;9.69
60731;BMP280;46580;52.114;11.674;2024-02-16T06:15:28;-19488.63;;;9.70
60731;BMP280;46580;52.114;11.674;2024-02-16T06:17:54;-19488.78;;;9.71
60731;BMP280;46580;52.114;11.674;2024-02-16T06:20:22;-19487.94;;;9.68
60731;BMP280;46580;52.114;11.674;2024-02-16T06:22:48;-19488.63;;;9.70
60731;BMP280;46580;52.114;11.674;2024-02-16T06:25:14;-19487.78;;;9.67
60731;BMP280;46580;52.114;11.674;2024-02-16T06:27:40;-19486.94;;;9.65
60731;BMP280;46580;52.114;11.674;2024-02-16T06:30:06;-19488.94;;;9.71
60731;BMP280;46580;52.114;11.674;2024-02-16T06:32:38;-19488.63;;;9.70
60731;BMP280;46580;52.114;11.674;2024-02-16T06:35:04;-19490.22;;;9.76
60731;BMP280;46580;52.114;11.674;2024-02-16T06:37:32;-19491.22;;;9.79
60731;BMP280;46580;52.114;11.674;2024-02-16T06:39:58;-19491.66;;;9.81
60731;BMP280;46580;52.114;11.674;2024-02-16T06:42:23;-19491.66;;;9.81
60731;BMP280;46580;52.114;11.674;2024-02-16T06:44:49;-19492.22;;;9.83
60731;BMP280;46580;52.114;11.674;2024-02-16T06:47:14;-19491.50;;;9.80
60731;BMP280;46580;52.114;11.674;2024-02-16T06:49:39;-19492.66;;;9.84
60731;BMP280;46580;52.114;11.674;2024-02-16T06:52:05;-19491.81;;;9.81
60731;BMP280;46580;52.114;11.674;2024-02-16T06:54:31;-19492.81;;;9.84
60731;BMP280;46580;52.114;11.674;2024-02-16T06:56:56;-19491.94;;;9.82
60731;BMP280;46580;52.114;11.674;2024-02-16T06:59:21;-19492.94;;;9.85
60731;BMP280;46580;52.114;11.674;2024-02-16T07:01:47;-19492.94;;;9.85
60731;BMP280;46580;52.114;11.674;2024-02-16T07:04:13;-19494.09;;;9.89
60731;BMP280;46580;52.114;11.674;2024-02-16T07:06:39;-19494.66;;;9.91
60731;BMP280;46580;52.114;11.674;2024-02-16T07:09:05;-19496.66;;;9.98
60731;BMP280;46580;52.114;11.674;2024-02-16T07:11:31;-19498.09;;;10.03
60731;BMP280;46580;52.114;11.674;2024-02-16T07:13:56;-19498.09;;;10.03
60731;BMP280;46580;52.114;11.674;2024-02-16T07:16:23;-19497.94;;;10.02
60731;BMP280;46580;52.114;11.674;2024-02-16T07:18:48;-19498.94;;;10.05
60731;BMP280;46580;52.114;11.674;2024-02-16T07:21:14;-19500.53;;;10.11
60731;BMP280;46580;52.114;11.674;2024-02-16T07:23:39;-19501.09;;;10.13
60731;BMP280;46580;52.114;11.674;2024-02-16T07:26:05;-19500.97;;;10.12
60731;BMP280;46580;52.114;11.674;2024-02-16T07:28:30;-19500.66;;;10.11
60731;BMP280;46580;52.114;11.674;2024-02-16T07:30:57;-19500.97;;;10.12
60731;BMP280;46580;52.114;11.674;2024-02-16T07:33:22;-19501.25;;;10.13
60731;BMP280;46580;52.114;11.674;2024-02-16T07:35:53;-19502.97;;;10.19
60731;BMP280;46580;52.114;11.674;2024-02-16T07:38:19;-19503.38;;;10.21
60731;BMP280;46580;52.114;11.674;2024-02-16T07:40:47;-19503.69;;;10.22
60731;BMP280;46580;52.114;11.674;2024-02-16T07:43:12;-19505.97;;;10.29
60731;BMP280;46580;52.114;11.674;2024-02-16T07:45:38;-19505.53;;;10.28
60731;BMP280;46580;52.114;11.674;2024-02-16T07:48:05;-19505.09;;;10.26
60731;BMP280;46580;52.114;11.674;2024-02-16T07:50:32;-19506.69;;;10.32
60731;BMP280;46580;52.114;11.674;2024-02-16T07:52:57;-19507.81;;;10.36
60731;BMP280;46580;52.114;11.674;2024-02-16T07:55:23;-19510.25;;;10.44
60731;BMP280;46580;52.114;11.674;2024-02-16T07:57:50;-19509.84;;;10.42
60731;BMP280;46580;52.114;11.674;2024-02-16T08:00:15;-19509.53;;;10.41
60731;BMP280;46580;52.114;11.674;2024-02-16T08:02:41;-19511.41;;;10.48
60731;BMP280;46580;52.114;11.674;2024-02-16T08:05:10;-19512.69;;;10.52
60731;BMP280;46580;52.114;11.674;2024-02-16T08:07:37;-19514.13;;;10.57
60731;BMP280;46580;52.114;11.674;2024-02-16T08:10:03;-19515.56;;;10.62
60731;BMP280;46580;52.114;11.674;2024-02-16T08:12:29;-19516.69;;;10.66
60731;BMP280;46580;52.114;11.674;2024-02-16T08:14:56;-19518.13;;;10.71
60731;BMP280;46580;52.114;11.674;2024-02-16T08:17:23;-19518.69;;;10.73
60731;BMP280;46580;52.114;11.674;2024-02-16T08:19:54;-19519.84;;;10.77
60731;BMP280;46580;52.114;11.674;2024-02-16T08:22:20;-19521.84;;;10.83
60731;BMP280;46580;52.114;11.674;2024-02-16T08:24:46;-19523.00;;;10.87
60731;BMP280;46580;52.114;11.674;2024-02-16T08:27:12;-19523.28;;;10.88
60731;BMP280;46580;52.114;11.674;2024-02-16T08:29:38;-19524.41;;;10.92
60731;BMP280;46580;52.114;11.674;2024-02-16T08:32:04;-19525.41;;;10.96
60731;BMP280;46580;52.114;11.674;2024-02-16T08:34:31;-19527.13;;;11.01
60731;BMP280;46580;52.114;11.674;2024-02-16T08:36:57;-19528.56;;;11.06
60731;BMP280;46580;52.114;11.674;2024-02-16T08:39:22;-19530.16;;;11.12
60731;BMP280;46580;52.114;11.674;2024-02-16T08:41:53;-19532.00;;;11.18
60731;BMP280;46580;52.114;11.674;2024-02-16T08:44:18;-19534.16;;;11.25
60731;BMP280;46580;52.114;11.674;2024-02-16T08:46:44;-19535.16;;;11.29
60731;BMP280;46580;52.114;11.674;2024-02-16T08:49:11;-19539.00;;;11.42
60731;BMP280;46580;52.114;11.674;2024-02-16T08:51:37;-19539.16;;;11.42
60731;BMP280;46580;52.114;11.674;2024-02-16T08:54:02;-19540.59;;;11.47
60731;BMP280;46580;52.114;11.674;2024-02-16T08:56:30;-19543.00;;;11.55
60731;BMP280;46580;52.114;11.674;2024-02-16T08:58:55;-19546.31;;;11.67
60731;BMP280;46580;52.114;11.674;2024-02-16T09:01:36;-19548.31;;;11.73
60731;BMP280;46580;52.114;11.674;2024-02-16T09:04:03;-19550.16;;;11.80
60731;BMP280;46580;52.114;11.674;2024-02-16T09:06:28;-19553.59;;;11.91
60731;BMP280;46580;52.114;11.674;2024-02-16T09:08:54;-19554.75;;;11.95
60731;BMP280;46580;52.114;11.674;2024-02-16T09:11:20;-19554.31;;;11.94
60731;BMP280;46580;52.114;11.674;2024-02-16T09:13:47;-19554.03;;;11.93
60731;BMP280;46580;52.114;11.674;2024-02-16T09:16:12;-19552.88;;;11.89
60731;BMP280;46580;52.114;11.674;2024-02-16T09:18:38;-19551.59;;;11.85
60731;BMP280;46580;52.114;11.674;2024-02-16T09:21:04;-19551.16;;;11.83
60731;BMP280;46580;52.114;11.674;2024-02-16T09:23:30;-19551.16;;;11.83
60731;BMP280;46580;52.114;11.674;2024-02-16T09:25:56;-19550.03;;;11.79
60731;BMP280;46580;52.114;11.674;2024-02-16T09:28:21;-19549.59;;;11.78
60731;BMP280;46580;52.114;11.674;2024-02-16T09:30:47;-19549.75;;;11.78
60731;BMP280;46580;52.114;11.674;2024-02-16T09:33:13;-19551.16;;;11.83
60731;BMP280;46580;52.114;11.674;2024-02-16T09:35:40;-19553.59;;;11.91
60731;BMP280;46580;52.114;11.674;2024-02-16T09:38:05;-19553.75;;;11.92
60731;BMP280;46580;52.114;11.674;2024-02-16T09:40:31;-19556.16;;;12.00
60731;BMP280;46580;52.114;11.674;2024-02-16T09:42:56;-19558.59;;;12.08
60731;BMP280;46580;52.114;11.674;2024-02-16T09:45:25;-19561.03;;;12.17
60731;BMP280;46580;52.114;11.674;2024-02-16T09:47:52;-19562.47;;;12.22
60731;BMP280;46580;52.114;11.674;2024-02-16T09:50:19;-19564.75;;;12.29
60731;BMP280;46580;52.114;11.674;2024-02-16T09:52:48;-19567.31;;;12.38
60731;BMP280;46580;52.114;11.674;2024-02-16T09:55:15;-19568.88;;;12.44
60731;BMP280;46580;52.114;11.674;2024-02-16T09:57:41;-19571.47;;;12.52
60731;BMP280;46580;52.114;11.674;2024-02-16T10:00:06;-19573.59;;;12.60
60731;BMP280;46580;52.114;11.674;2024-02-16T10:02:44;-19576.47;;;12.69
60731;BMP280;46580;52.114;11.674;2024-02-16T10:05:20;-19578.75;;;12.77
60731;BMP280;46580;52.114;11.674;2024-02-16T10:07:46;-19581.75;;;12.87
60731;BMP280;46580;52.114;11.674;2024-02-16T10:10:26;-19583.59;;;12.94
60731;BMP280;46580;52.114;11.674;2024-02-16T10:13:02;-19584.75;;;12.98
60731;BMP280;46580;52.114;11.674;2024-02-16T10:15:29;-19586.19;;;13.02
60731;BMP280;46580;52.114;11.674;2024-02-16T10:18:02;-19586.91;;;13.05
60731;BMP280;46580;52.114;11.674;2024-02-16T10:20:29;-19590.59;;;13.18
60731;BMP280;46580;52.114;11.674;2024-02-16T10:25:29;-19592.19;;;13.23
60731;BMP280;46580;52.114;11.674;2024-02-16T10:27:57;-19593.88;;;13.29
60731;BMP280;46580;52.114;11.674;2024-02-16T10:30:26;-19597.03;;;13.39
60731;BMP280;46580;52.114;11.674;2024-02-16T10:32:57;-19598.16;;;13.43
60731;BMP280;46580;52.114;11.674;2024-02-16T10:35:25;-19600.16;;;13.50
60731;BMP280;46580;52.114;11.674;2024-02-16T10:37:51;-19602.47;;;13.58
60731;BMP280;46580;52.114;11.674;2024-02-16T10:40:19;-19604.16;;;13.64
60731;BMP280;46580;52.114;11.674;2024-02-16T10:42:46;-19606.88;;;13.73
60731;BMP280;46580;52.114;11.674;2024-02-16T10:45:12;-19607.88;;;13.76
60731;BMP280;46580;52.114;11.674;2024-02-16T10:47:40;-19610.75;;;13.86
60731;BMP280;46580;52.114;11.674;2024-02-16T10:50:06;-19616.44;;;14.06
60731;BMP280;46580;52.114;11.674;2024-02-16T10:52:33;-19616.44;;;14.06
60731;BMP280;46580;52.114;11.674;2024-02-16T10:55:00;-19619.03;;;14.14
60731;BMP280;46580;52.114;11.674;2024-02-16T10:57:29;-19620.72;;;14.20
60731;BMP280;46580;52.114;11.674;2024-02-16T10:59:55;-19620.03;;;14.18
60731;BMP280;46580;52.114;11.674;2024-02-16T11:02:24;-19621.44;;;14.23
60731;BMP280;46580;52.114;11.674;2024-02-16T11:04:52;-19628.28;;;14.46
60731;BMP280;46580;52.114;11.674;2024-02-16T11:07:19;-19637.44;;;14.77
60731;BMP280;46580;52.114;11.674;2024-02-16T11:09:46;-19648.13;;;15.14
60731;BMP280;46580;52.114;11.674;2024-02-16T11:12:15;-19657.81;;;15.47
60731;BMP280;46580;52.114;11.674;2024-02-16T11:14:42;-19662.38;;;15.63
60731;BMP280;46580;52.114;11.674;2024-02-16T11:17:12;-19668.09;;;15.82
60731;BMP280;46580;52.114;11.674;2024-02-16T11:19:41;-19674.38;;;16.03
60731;BMP280;46580;52.114;11.674;2024-02-16T11:22:07;-19677.50;;;16.14
60731;BMP280;46580;52.114;11.674;2024-02-16T11:24:34;-19676.06;;;16.09
60731;BMP280;46580;52.114;11.674;2024-02-16T11:27:07;-19674.38;;;16.03
60731;BMP280;46580;52.114;11.674;2024-02-16T11:29:35;-19673.94;;;16.02
60731;BMP280;46580;52.114;11.674;2024-02-16T11:32:02;-19674.09;;;16.02
60731;BMP280;46580;52.114;11.674;2024-02-16T11:34:28;-19673.22;;;16.00
60731;BMP280;46580;52.114;11.674;2024-02-16T11:36:55;-19671.50;;;15.94
60731;BMP280;46580;52.114;11.674;2024-02-16T11:39:21;-19670.78;;;15.91
60731;BMP280;46580;52.114;11.674;2024-02-16T11:41:47;-19672.09;;;15.96
60731;BMP280;46580;52.114;11.674;2024-02-16T11:44:13;-19669.50;;;15.87
60731;BMP280;46580;52.114;11.674;2024-02-16T11:46:42;-19669.50;;;15.87
60731;BMP280;46580;52.114;11.674;2024-02-16T11:49:08;-19670.66;;;15.91
60731;BMP280;46580;52.114;11.674;2024-02-16T11:51:34;-19670.94;;;15.92
60731;BMP280;46580;52.114;11.674;2024-02-16T11:53:59;-19670.66;;;15.91
60731;BMP280;46580;52.114;11.674;2024-02-16T11:56:25;-19670.66;;;15.91
60731;BMP280;46580;52.114;11.674;2024-02-16T11:58:52;-19675.78;;;16.08
60731;BMP280;46580;52.114;11.674;2024-02-16T12:01:18;-19680.91;;;16.26
60731;BMP280;46580;52.114;11.674;2024-02-16T12:03:43;-19684.78;;;16.39
60731;BMP280;46580;52.114;11.674;2024-02-16T12:06:08;-19686.34;;;16.44
60731;BMP280;46580;52.114;11.674;2024-02-16T12:08:35;-19685.34;;;16.41
60731;BMP280;46580;52.114;11.674;2024-02-16T12:11:02;-19685.34;;;16.41
60731;BMP280;46580;52.114;11.674;2024-02-16T12:13:27;-19685.34;;;16.41
60731;BMP280;46580;52.114;11.674;2024-02-16T12:15:53;-19686.06;;;16.43
60731;BMP280;46580;52.114;11.674;2024-02-16T12:18:26;-19685.63;;;16.42
60731;BMP280;46580;52.114;11.674;2024-02-16T12:21:05;-19692.59;;;16.66
60731;BMP280;46580;52.114;11.674;2024-02-16T12:23:35;-19696.31;;;16.78
60731;BMP280;46580;52.114;11.674;2024-02-16T12:26:03;-19702.44;;;16.99
60731;BMP280;46580;52.114;11.674;2024-02-16T12:28:31;-19710.13;;;17.26
60731;BMP280;46580;52.114;11.674;2024-02-16T12:31:00;-19714.41;;;17.40
60731;BMP280;46580;52.114;11.674;2024-02-16T12:33:26;-19709.69;;;17.24
60731;BMP280;46580;52.114;11.674;2024-02-16T12:35:52;-19707.72;;;17.17
60731;BMP280;46580;52.114;11.674;2024-02-16T12:38:17;-19709.28;;;17.23
60731;BMP280;46580;52.114;11.674;2024-02-16T12:40:45;-19709.13;;;17.22
60731;BMP280;46580;52.114;11.674;2024-02-16T12:43:11;-19705.56;;;17.10
60731;BMP280;46580;52.114;11.674;2024-02-16T12:45:38;-19704.00;;;17.05
60731;BMP280;46580;52.114;11.674;2024-02-16T12:48:03;-19709.13;;;17.22
60731;BMP280;46580;52.114;11.674;2024-02-16T12:50:30;-19712.69;;;17.34
60731;BMP280;46580;52.114;11.674;2024-02-16T12:52:56;-19712.56;;;17.34
60731;BMP280;46580;52.114;11.674;2024-02-16T12:55:22;-19710.97;;;17.29
60731;BMP280;46580;52.114;11.674;2024-02-16T12:57:49;-19708.41;;;17.20
60731;BMP280;46580;52.114;11.674;2024-02-16T13:00:15;-19704.84;;;17.08
60731;BMP280;46580;52.114;11.674;2024-02-16T13:02:40;-19702.88;;;17.01
60731;BMP280;46580;52.114;11.674;2024-02-16T13:05:06;-19701.16;;;16.95
60731;BMP280;46580;52.114;11.674;2024-02-16T13:07:31;-19699.59;;;16.90
60731;BMP280;46580;52.114;11.674;2024-02-16T13:09:57;-19700.28;;;16.92
60731;BMP280;46580;52.114;11.674;2024-02-16T13:12:22;-19701.16;;;16.95
60731;BMP280;46580;52.114;11.674;2024-02-16T13:14:49;-19702.72;;;17.00
60731;BMP280;46580;52.114;11.674;2024-02-16T13:17:14;-19703.44;;;17.03
60731;BMP280;46580;52.114;11.674;2024-02-16T13:19:40;-19708.13;;;17.19
60731;BMP280;46580;52.114;11.674;2024-02-16T13:22:05;-19713.53;;;17.37
60731;BMP280;46580;52.114;11.674;2024-02-16T13:24:30;-19714.41;;;17.40
60731;BMP280;46580;52.114;11.674;2024-02-16T13:26:56;-19717.09;;;17.49
60731;BMP280;46580;52.114;11.674;2024-02-16T13:29:22;-19716.41;;;17.47
60731;BMP280;46580;52.114;11.674;2024-02-16T13:31:47;-19714.25;;;17.40
60731;BMP280;46580;52.114;11.674;2024-02-16T13:34:13;-19709.13;;;17.22
60731;BMP280;46580;52.114;11.674;2024-02-16T13:36:40;-19706.00;;;17.12
60731;BMP280;46580;52.114;11.674;2024-02-16T13:39:09;-19703.16;;;17.02
60731;BMP280;46580;52.114;11.674;2024-02-16T13:41:35;-19700.72;;;16.93
60731;BMP280;46580;52.114;11.674;2024-02-16T13:44:01;-19698.59;;;16.86
60731;BMP280;46580;52.114;11.674;2024-02-16T13:46:27;-19695.47;;;16.75
60731;BMP280;46580;52.114;11.674;2024-02-16T13:48:53;-19694.88;;;16.74